createdAt,value
2022-09-18T00:02:13.832Z,99.16
2022-09-18T00:07:45.353Z,98.99
2022-09-18T00:13:17.091Z,99.69
2022-09-18T00:18:48.993Z,99.46
2022-09-18T00:24:20.531Z,99.7
2022-09-18T00:29:58.690Z,99.45
2022-09-18T00:35:30.882Z,98.74
2022-09-18T00:41:02.193Z,98.95
2022-09-18T00:46:33.994Z,98.33
2022-09-18T00:52:05.738Z,98.95
2022-09-18T00:57:37.341Z,98.52
2022-09-18T01:03:09.113Z,98.12
2022-09-18T01:08:44.407Z,97.74
2022-09-18T01:14:12.533Z,97.26
2022-09-18T01:19:44.206Z,95.77
2022-09-18T01:25:15.938Z,94.64
2022-09-18T01:30:54.220Z,91.76
2022-09-18T01:36:25.828Z,92.02
2022-09-18T01:41:57.569Z,92.75
2022-09-18T01:47:29.318Z,95.52
2022-09-18T01:53:01.026Z,97.93
2022-09-18T01:58:32.733Z,99.31
2022-09-18T02:04:04.547Z,100.0
2022-09-18T02:09:36.150Z,100.0
2022-09-18T02:15:08.009Z,100.0
2022-09-18T02:20:39.630Z,100.0
2022-09-18T02:26:11.560Z,100.0
2022-09-18T02:31:47.670Z,100.0
2022-09-18T02:37:19.351Z,100.0
2022-09-18T02:42:50.960Z,100.0
2022-09-18T02:48:22.693Z,100.0
2022-09-18T02:53:54.427Z,100.0
2022-09-18T02:59:26.145Z,100.0
2022-09-18T03:04:57.821Z,100.0
2022-09-18T03:10:29.517Z,100.0
2022-09-18T03:16:01.369Z,100.0
2022-09-18T03:21:33.029Z,100.0
2022-09-18T03:27:04.949Z,100.0
2022-09-18T03:32:40.981Z,100.0
2022-09-18T03:38:12.841Z,100.0
2022-09-18T03:43:44.329Z,100.0
2022-09-18T03:49:16.072Z,100.0
2022-09-18T03:54:47.917Z,100.0
2022-09-18T04:00:19.514Z,100.0
2022-09-18T04:05:51.283Z,100.0
2022-09-18T04:11:22.972Z,100.0
2022-09-18T04:16:54.653Z,100.0
2022-09-18T04:22:26.441Z,100.0
2022-09-18T04:27:58.093Z,100.0
2022-09-18T04:33:36.249Z,100.0
2022-09-18T04:39:08.001Z,100.0
2022-09-18T04:44:39.751Z,100.0
2022-09-18T04:50:11.437Z,100.0
2022-09-18T04:55:43.169Z,100.0
2022-09-18T05:01:15.015Z,100.0
2022-09-18T05:06:46.605Z,100.0
2022-09-18T05:12:18.573Z,100.0
2022-09-18T05:17:50.074Z,100.0
2022-09-18T05:23:21.774Z,100.0
2022-09-18T05:28:53.542Z,100.0
2022-09-18T05:34:31.764Z,100.0
2022-09-18T05:40:03.618Z,100.0
2022-09-18T05:45:35.208Z,100.0
2022-09-18T05:51:06.855Z,100.0
2022-09-18T05:56:38.487Z,100.0
2022-09-18T06:02:10.437Z,100.0
2022-09-18T06:07:41.996Z,100.0
2022-09-18T06:13:13.704Z,100.0
2022-09-18T06:18:45.437Z,100.0
2022-09-18T06:24:17.185Z,100.0
2022-09-18T06:29:48.876Z,100.0
2022-09-18T06:35:27.041Z,100.0
2022-09-18T06:40:58.751Z,100.0
2022-09-18T06:46:30.643Z,100.0
2022-09-18T06:52:02.177Z,100.0
2022-09-18T06:57:34.432Z,100.0
2022-09-18T07:03:05.627Z,100.0
2022-09-18T07:08:37.368Z,100.0
2022-09-18T07:14:09.853Z,100.0
2022-09-18T07:19:41.577Z,100.0
2022-09-18T07:25:13.382Z,100.0
2022-09-18T07:30:45.741Z,100.0
2022-09-18T07:36:25.918Z,100.0
2022-09-18T07:41:57.637Z,100.0
2022-09-18T07:47:29.304Z,100.0
2022-09-18T07:53:01.096Z,100.0
2022-09-18T07:58:32.757Z,100.0
2022-09-18T08:04:04.493Z,100.0
2022-09-18T08:09:36.216Z,100.0
2022-09-18T08:15:07.941Z,100.0
2022-09-18T08:17:44.626Z,100.0
2022-09-18T08:23:16.197Z,100.0
2022-09-18T08:28:47.987Z,100.0
2022-09-18T08:34:19.729Z,99.1
2022-09-18T08:39:51.779Z,99.27
2022-09-18T08:45:23.211Z,98.83
2022-09-18T08:50:54.902Z,98.42
2022-09-18T08:56:26.760Z,98.75
2022-09-18T09:01:58.613Z,97.8
2022-09-18T09:07:30.196Z,98.38
2022-09-18T09:13:01.984Z,98.04
2022-09-18T09:18:38.106Z,97.04
2022-09-18T09:24:09.852Z,95.85
2022-09-18T09:29:41.604Z,97.59
2022-09-18T09:35:13.272Z,96.33
2022-09-18T09:40:45.483Z,96.78
2022-09-18T09:46:21.749Z,96.7
2022-09-18T09:51:48.447Z,95.32
2022-09-18T09:57:20.172Z,95.23
2022-09-18T10:02:51.900Z,94.61
2022-09-18T10:08:23.609Z,94.12
2022-09-18T10:13:55.331Z,92.51
2022-09-18T10:19:31.481Z,91.58
2022-09-18T10:25:03.185Z,90.6
2022-09-18T10:30:34.946Z,88.41
2022-09-18T10:36:06.673Z,86.72
2022-09-18T10:41:38.397Z,87.78
2022-09-18T10:47:10.221Z,85.56
2022-09-18T10:52:41.859Z,84.27
2022-09-18T10:58:13.597Z,84.58
2022-09-18T11:03:45.504Z,82.78
2022-09-18T11:09:17.022Z,82.38
2022-09-18T11:14:48.729Z,80.39
2022-09-18T11:20:24.861Z,78.13
2022-09-18T11:25:56.561Z,77.85
2022-09-18T11:31:28.567Z,77.59
2022-09-18T11:37:00.078Z,76.26
2022-09-18T11:42:31.705Z,76.22
2022-09-18T11:48:03.677Z,75.7
2022-09-18T11:53:35.181Z,78.79
2022-09-18T11:59:06.929Z,77.1
2022-09-18T12:04:38.686Z,76.05
2022-09-18T12:10:09.070Z,74.59
2022-09-18T12:15:40.758Z,74.95
2022-09-18T12:21:16.842Z,73.59
2022-09-18T12:26:48.642Z,75.42
2022-09-18T12:32:20.297Z,74.06
2022-09-18T12:37:52.017Z,73.23
2022-09-18T12:43:24.448Z,72.51
2022-09-18T12:48:56.156Z,72.57
2022-09-18T12:54:27.927Z,72.29
2022-09-18T12:59:59.733Z,72.81
2022-09-18T13:05:31.418Z,73.49
2022-09-18T13:11:03.110Z,73.32
2022-09-18T13:16:35.873Z,74.17
2022-09-18T13:22:11.690Z,72.52
2022-09-18T13:27:43.434Z,72.91
2022-09-18T13:33:15.150Z,74.3
2022-09-18T13:38:46.896Z,73.88
2022-09-18T13:44:18.666Z,73.15
2022-09-18T13:49:50.473Z,72.56
2022-09-18T13:55:22.099Z,73.8
2022-09-18T14:00:53.872Z,74.78
2022-09-18T14:06:25.504Z,75.55
2022-09-18T14:11:57.342Z,75.47
2022-09-18T14:17:28.953Z,74.99
2022-09-18T14:23:07.123Z,75.07
2022-09-18T14:28:38.857Z,74.28
2022-09-18T14:34:10.555Z,76.3
2022-09-18T14:39:42.391Z,76.29
2022-09-18T14:45:14.034Z,74.67
2022-09-18T14:50:45.763Z,74.26
2022-09-18T14:56:17.469Z,74.64
2022-09-18T15:01:49.208Z,75.96
2022-09-18T15:07:20.934Z,74.01
2022-09-18T15:12:52.640Z,74.26
2022-09-18T15:18:24.474Z,73.87
2022-09-18T15:24:00.509Z,75.14
2022-09-18T15:29:32.203Z,75.81
2022-09-18T15:35:04.039Z,74.24
2022-09-18T15:40:35.849Z,73.15
2022-09-18T15:46:07.444Z,73.32
2022-09-18T15:51:39.137Z,72.13
2022-09-18T15:57:10.859Z,73.69
2022-09-18T16:02:42.619Z,73.65
2022-09-18T16:08:14.416Z,73.06
2022-09-18T16:13:46.153Z,73.36
2022-09-18T16:19:17.919Z,73.56
2022-09-18T16:24:53.924Z,73.46
2022-09-18T16:30:25.736Z,73.97
2022-09-18T16:35:57.507Z,73.74
2022-09-18T16:41:29.211Z,73.4
2022-09-18T16:47:01.083Z,74.12
2022-09-18T16:52:32.935Z,74.89
2022-09-18T16:58:04.669Z,74.89
2022-09-18T17:03:36.403Z,74.53
2022-09-18T17:09:08.174Z,75.61
2022-09-18T17:14:39.928Z,75.47
2022-09-18T17:20:11.614Z,75.37
2022-09-18T17:25:47.778Z,75.36
2022-09-18T17:31:19.634Z,75.03
2022-09-18T17:36:51.252Z,75.02
2022-09-18T17:42:22.928Z,74.79
2022-09-18T17:47:54.712Z,75.15
2022-09-18T17:53:26.383Z,75.27
2022-09-18T17:58:58.084Z,75.27
2022-09-18T18:04:29.766Z,75.45
2022-09-18T18:10:02.164Z,75.64
2022-09-18T18:15:33.864Z,75.76
2022-09-18T18:21:05.916Z,75.24
2022-09-18T18:26:41.732Z,76.48
2022-09-18T18:32:13.473Z,76.16
2022-09-18T18:37:45.189Z,76.7
2022-09-18T18:43:16.940Z,75.87
2022-09-18T18:48:48.591Z,76.89
2022-09-18T18:54:20.397Z,76.16
2022-09-18T18:59:52.095Z,76.27
2022-09-18T19:05:23.803Z,76.73
2022-09-18T19:10:55.520Z,76.66
2022-09-18T19:16:27.354Z,76.84
2022-09-18T19:21:59.124Z,76.46
2022-09-18T19:27:37.134Z,76.34
2022-09-18T19:33:09.870Z,76.6
2022-09-18T19:38:40.618Z,77.39
2022-09-18T19:44:12.271Z,76.27
2022-09-18T19:49:44.157Z,77.59
2022-09-18T19:55:15.743Z,78.04
2022-09-18T20:00:47.680Z,80.23
2022-09-18T20:06:19.204Z,83.31
2022-09-18T20:11:50.908Z,85.26
2022-09-18T20:17:22.635Z,86.51
2022-09-18T20:22:54.380Z,88.61
2022-09-18T20:28:30.535Z,90.21
2022-09-18T20:34:02.437Z,91.01
2022-09-18T20:39:34.100Z,92.02
2022-09-18T20:45:05.862Z,92.43
2022-09-18T20:50:37.624Z,92.66
2022-09-18T20:56:09.310Z,93.03
2022-09-18T21:01:41.083Z,92.79
2022-09-18T21:07:12.743Z,93.47
2022-09-18T21:12:44.463Z,93.87
2022-09-18T21:18:16.192Z,94.67
2022-09-18T21:23:47.943Z,94.11
2022-09-18T21:29:24.031Z,95.02
2022-09-18T21:34:55.756Z,95.41
2022-09-18T21:40:27.667Z,96.76
2022-09-18T21:45:59.272Z,97.72
2022-09-18T21:51:30.992Z,98.86
2022-09-18T21:57:02.660Z,99.19
2022-09-18T22:02:34.425Z,99.5
2022-09-18T22:08:06.199Z,98.66
2022-09-18T22:13:37.909Z,98.9
2022-09-18T22:19:09.814Z,98.86
2022-09-18T22:24:41.387Z,98.82
2022-09-18T22:30:17.519Z,98.14
2022-09-18T22:35:49.238Z,98.21
2022-09-18T22:41:20.973Z,97.78
2022-09-18T22:46:53.006Z,100.0
2022-09-18T22:52:24.357Z,100.0
2022-09-18T22:57:56.300Z,100.0
2022-09-18T23:03:27.849Z,100.0
2022-09-18T23:08:59.578Z,100.0
2022-09-18T23:14:31.285Z,100.0
2022-09-18T23:20:03.008Z,100.0
2022-09-18T23:25:34.856Z,100.0
2022-09-18T23:31:12.940Z,100.0
2022-09-18T23:36:44.611Z,100.0
2022-09-18T23:42:16.346Z,100.0
2022-09-18T23:47:48.058Z,100.0
2022-09-18T23:53:19.762Z,100.0
2022-09-18T23:58:51.512Z,100.0
